createdAt,value
2023-02-27T00:00:21.098Z,5.95
2023-02-27T00:02:50.765Z,5.95
2023-02-27T00:05:18.867Z,6.85
2023-02-27T00:07:46.824Z,5.43
2023-02-27T00:10:15.230Z,5.97
2023-02-27T00:12:43.811Z,4.63
2023-02-27T00:15:13.819Z,5.63
2023-02-27T00:17:41.908Z,4.38
2023-02-27T00:20:11.867Z,5.85
2023-02-27T00:22:40.791Z,6.30
2023-02-27T00:25:09.492Z,4.15
2023-02-27T00:27:37.384Z,5.88
2023-02-27T00:30:07.284Z,5.32
2023-02-27T00:32:45.855Z,6.10
2023-02-27T00:35:13.937Z,4.95
2023-02-27T00:37:41.546Z,4.70
2023-02-27T00:40:10.410Z,6.13
2023-02-27T00:42:38.859Z,5.85
2023-02-27T00:45:09.944Z,6.05
2023-02-27T00:47:38.156Z,5.95
2023-02-27T00:50:06.416Z,5.32
2023-02-27T00:52:35.465Z,4.47
2023-02-27T00:55:03.528Z,6.10
2023-02-27T00:57:32.022Z,5.82
2023-02-27T01:00:00.129Z,4.93
2023-02-27T01:02:27.855Z,5.25
2023-02-27T01:04:56.776Z,4.82
2023-02-27T01:07:24.886Z,7.13
2023-02-27T01:09:54.328Z,5.03
2023-02-27T01:12:22.070Z,4.20
2023-02-27T01:14:49.821Z,5.22
2023-02-27T01:17:18.343Z,4.65
2023-02-27T01:19:46.217Z,4.55
2023-02-27T01:22:14.444Z,5.85
2023-02-27T01:24:42.829Z,4.80
2023-02-27T01:27:10.777Z,4.63
2023-02-27T01:29:38.644Z,5.35
2023-02-27T01:32:06.804Z,5.00
2023-02-27T01:34:34.618Z,4.72
2023-02-27T01:37:03.983Z,5.70
2023-02-27T01:39:33.228Z,4.80
2023-02-27T01:42:04.255Z,5.50
2023-02-27T01:44:32.461Z,3.92
2023-02-27T01:47:00.021Z,6.28
2023-02-27T01:49:32.197Z,5.40
2023-02-27T01:54:34.285Z,4.55
2023-02-27T01:57:07.129Z,5.00
2023-02-27T01:59:36.946Z,5.38
2023-02-27T02:02:08.763Z,5.07
2023-02-27T02:04:39.013Z,4.68
2023-02-27T02:07:10.056Z,4.60
2023-02-27T02:09:43.207Z,5.00
2023-02-27T02:12:13.167Z,5.85
2023-02-27T02:14:44.120Z,6.25
2023-02-27T02:17:51.375Z,4.88
2023-02-27T02:20:58.395Z,5.25
2023-02-27T02:24:03.692Z,4.75
2023-02-27T02:36:05.861Z,5.00
2023-02-27T02:49:58.133Z,6.70
2023-02-27T02:55:34.547Z,5.50
2023-02-27T02:58:16.018Z,8.30
2023-02-27T03:00:49.799Z,7.20
2023-02-27T03:03:25.719Z,5.78
2023-02-27T03:06:01.637Z,6.60
2023-02-27T03:08:34.020Z,5.72
2023-02-27T03:13:38.520Z,5.32
2023-02-27T03:16:16.804Z,5.88
2023-02-27T03:18:50.479Z,5.10
2023-02-27T03:21:23.958Z,6.32
2023-02-27T03:23:54.410Z,5.10
2023-02-27T03:26:25.597Z,6.80
2023-02-27T03:29:02.079Z,5.78
2023-02-27T03:31:38.572Z,5.43
2023-02-27T03:34:17.325Z,7.65
2023-02-27T03:36:55.588Z,5.47
2023-02-27T03:39:31.774Z,3.58
2023-02-27T03:42:39.204Z,6.85
2023-02-27T03:48:09.350Z,6.25
2023-02-27T03:50:37.709Z,4.60
2023-02-27T03:53:08.694Z,5.25
2023-02-27T03:55:39.743Z,6.47
2023-02-27T03:58:07.408Z,5.22
2023-02-27T04:00:35.668Z,4.82
2023-02-27T04:03:03.832Z,5.95
2023-02-27T04:05:32.421Z,5.00
2023-02-27T04:08:33.271Z,7.53
2023-02-27T04:22:01.972Z,4.43
2023-02-27T04:25:10.142Z,7.88
2023-02-27T04:30:43.215Z,5.20
2023-02-27T04:33:35.567Z,5.22
2023-02-27T04:36:13.045Z,5.28
2023-02-27T04:44:15.424Z,6.65
2023-02-27T04:46:44.230Z,5.60
2023-02-27T04:49:17.499Z,7.07
2023-02-27T04:54:33.174Z,5.65
2023-02-27T04:57:04.884Z,4.80
2023-02-27T04:59:36.888Z,5.75
2023-02-27T05:02:11.999Z,6.22
2023-02-27T05:04:41.902Z,5.90
2023-02-27T05:07:12.331Z,6.80
2023-02-27T05:10:00.609Z,6.35
2023-02-27T05:12:34.654Z,6.95
2023-02-27T05:15:07.988Z,6.20
2023-02-27T05:17:39.630Z,8.18
2023-02-27T05:20:07.680Z,5.82
2023-02-27T05:27:54.774Z,7.07
2023-02-27T05:38:46.600Z,6.75
2023-02-27T05:41:18.887Z,7.85
2023-02-27T05:46:27.161Z,5.80
2023-02-27T05:48:58.819Z,6.78
2023-02-27T05:51:28.872Z,5.63
2023-02-27T05:54:00.981Z,7.18
2023-02-27T05:56:30.407Z,7.43
2023-02-27T05:59:03.582Z,6.57
2023-02-27T06:01:31.089Z,5.97
2023-02-27T06:03:59.031Z,7.68
2023-02-27T06:06:26.968Z,6.55
2023-02-27T06:08:54.649Z,6.68
2023-02-27T06:11:22.087Z,6.75
2023-02-27T06:13:49.513Z,7.25
2023-02-27T06:16:17.185Z,7.35
2023-02-27T06:18:44.604Z,8.07
2023-02-27T06:21:13.445Z,5.85
2023-02-27T06:23:40.763Z,5.20
2023-02-27T06:26:08.129Z,8.15
2023-02-27T06:28:35.596Z,4.78
2023-02-27T06:31:03.426Z,7.28
2023-02-27T06:33:31.187Z,6.43
2023-02-27T06:35:58.659Z,7.53
2023-02-27T06:38:26.208Z,6.43
2023-02-27T06:40:53.564Z,7.72
2023-02-27T06:43:23.413Z,7.03
2023-02-27T06:45:54.748Z,7.45
2023-02-27T06:48:22.533Z,7.05
2023-02-27T06:50:57.602Z,7.05
2023-02-27T06:53:25.800Z,6.43
2023-02-27T06:55:53.338Z,6.82
2023-02-27T06:58:20.924Z,6.65
2023-02-27T07:00:48.498Z,6.03
2023-02-27T07:03:15.866Z,6.18
2023-02-27T07:05:43.280Z,5.65
2023-02-27T07:08:11.165Z,7.35
2023-02-27T07:10:40.222Z,8.52
2023-02-27T07:13:07.574Z,6.25
2023-02-27T07:15:35.073Z,7.68
2023-02-27T07:18:03.625Z,8.15
2023-02-27T07:20:31.071Z,6.40
2023-02-27T07:22:58.516Z,6.90
2023-02-27T07:25:25.897Z,6.13
2023-02-27T07:27:53.394Z,4.82
2023-02-27T07:30:20.777Z,7.95
2023-02-27T07:32:48.383Z,8.38
2023-02-27T07:35:16.083Z,6.13
2023-02-27T07:37:43.649Z,6.55
2023-02-27T07:40:11.977Z,6.50
2023-02-27T07:42:40.655Z,6.68
2023-02-27T07:45:08.811Z,6.10
2023-02-27T07:47:36.332Z,7.80
2023-02-27T07:50:04.825Z,5.43
2023-02-27T07:52:32.762Z,7.20
2023-02-27T07:55:00.357Z,6.25
2023-02-27T07:57:27.830Z,6.28
2023-02-27T07:59:55.290Z,6.20
2023-02-27T08:02:23.242Z,6.40
2023-02-27T08:04:52.159Z,4.97
2023-02-27T08:07:19.615Z,6.15
2023-02-27T08:09:47.026Z,5.63
2023-02-27T08:12:14.394Z,5.90
2023-02-27T08:14:41.695Z,6.00
2023-02-27T08:17:09.145Z,7.45
2023-02-27T08:19:36.688Z,6.35
2023-02-27T08:22:04.170Z,7.20
2023-02-27T08:24:31.731Z,5.45
2023-02-27T08:26:59.325Z,6.68
2023-02-27T08:29:27.603Z,4.78
2023-02-27T08:31:55.151Z,5.55
2023-02-27T08:34:22.721Z,5.70
2023-02-27T08:36:50.248Z,6.20
2023-02-27T08:39:18.410Z,5.25
2023-02-27T08:41:45.827Z,7.45
2023-02-27T08:44:13.383Z,7.93
2023-02-27T08:46:40.745Z,7.20
2023-02-27T08:49:08.121Z,5.75
2023-02-27T08:51:35.674Z,5.10
2023-02-27T08:54:03.260Z,5.82
2023-02-27T08:56:30.777Z,6.22
2023-02-27T08:58:58.225Z,5.18
2023-02-27T09:01:28.887Z,4.72
2023-02-27T09:03:57.566Z,7.45
2023-02-27T09:06:26.365Z,6.32
2023-02-27T09:08:54.009Z,7.00
2023-02-27T09:11:21.692Z,7.32
2023-02-27T09:13:49.159Z,6.65
2023-02-27T09:16:16.908Z,4.97
2023-02-27T09:18:44.609Z,6.30
2023-02-27T09:21:12.602Z,5.70
2023-02-27T09:23:40.411Z,5.88
2023-02-27T09:26:09.482Z,7.40
2023-02-27T09:28:37.486Z,4.20
2023-02-27T09:31:06.637Z,6.18
2023-02-27T09:33:34.667Z,6.82
2023-02-27T09:36:02.419Z,5.70
2023-02-27T09:38:29.762Z,5.30
2023-02-27T09:40:57.475Z,5.47
2023-02-27T09:43:44.983Z,6.07
2023-02-27T09:46:18.679Z,6.15
2023-02-27T09:51:28.662Z,4.75
2023-02-27T09:53:59.153Z,5.13
2023-02-27T09:56:37.036Z,4.47
2023-02-27T09:59:43.975Z,4.13
2023-02-27T10:05:06.107Z,5.82
2023-02-27T10:10:29.034Z,5.45
2023-02-27T10:15:40.651Z,5.78
2023-02-27T10:20:54.905Z,4.40
2023-02-27T10:23:31.385Z,6.28
2023-02-27T10:25:59.113Z,5.28
2023-02-27T10:28:26.714Z,5.00
2023-02-27T10:30:56.277Z,7.07
2023-02-27T10:33:42.713Z,6.28
2023-02-27T10:36:23.603Z,5.82
2023-02-27T10:39:01.814Z,6.28
2023-02-27T10:41:29.782Z,5.53
2023-02-27T10:43:59.976Z,5.85
2023-02-27T10:46:31.409Z,6.53
2023-02-27T10:49:00.672Z,4.93
2023-02-27T10:51:31.657Z,4.25
2023-02-27T10:56:59.045Z,5.45
2023-02-27T10:59:29.959Z,4.28
2023-02-27T11:04:38.499Z,6.05
2023-02-27T11:07:09.616Z,6.53
2023-02-27T11:09:37.454Z,5.45
2023-02-27T11:12:26.604Z,5.13
2023-02-27T11:14:56.034Z,4.88
2023-02-27T11:17:28.815Z,5.15
2023-02-27T11:19:57.502Z,4.55
2023-02-27T11:22:30.526Z,5.72
2023-02-27T11:28:13.614Z,6.20
2023-02-27T11:30:43.343Z,5.63
2023-02-27T11:33:18.969Z,4.15
2023-02-27T11:35:56.999Z,6.50
2023-02-27T11:38:28.549Z,5.80
2023-02-27T11:43:35.563Z,6.30
2023-02-27T11:46:33.646Z,4.95
2023-02-27T11:49:07.898Z,5.28
2023-02-27T11:54:21.361Z,5.68
2023-02-27T11:57:11.776Z,5.13
2023-02-27T12:02:57.117Z,4.75
2023-02-27T12:08:05.902Z,4.35
2023-02-27T12:11:12.417Z,3.72
2023-02-27T12:13:44.226Z,4.38
2023-02-27T12:21:54.746Z,5.72
2023-02-27T12:24:31.200Z,5.05
2023-02-27T12:27:23.108Z,4.35
2023-02-27T12:29:55.463Z,4.65
2023-02-27T12:34:59.300Z,7.65
2023-02-27T12:37:29.546Z,5.05
2023-02-27T12:39:59.824Z,6.68
2023-02-27T12:51:05.779Z,6.78
2023-02-27T12:56:35.158Z,5.95
2023-02-27T12:59:12.068Z,4.72
2023-02-27T13:01:46.630Z,5.68
2023-02-27T13:07:01.577Z,6.10
2023-02-27T13:09:44.859Z,5.10
2023-02-27T13:15:05.771Z,4.68
2023-02-27T13:22:59.352Z,5.53
2023-02-27T13:25:27.334Z,6.13
2023-02-27T13:28:00.476Z,6.10
2023-02-27T13:30:34.532Z,4.40
2023-02-27T13:33:33.590Z,5.75
2023-02-27T13:38:55.133Z,5.05
2023-02-27T13:47:40.816Z,5.15
2023-02-27T13:53:10.694Z,6.63
2023-02-27T13:55:40.327Z,5.55
2023-02-27T13:58:17.174Z,5.40
2023-02-27T14:00:54.628Z,6.00
2023-02-27T14:03:26.126Z,3.50
2023-02-27T14:05:57.987Z,6.68
2023-02-27T14:08:27.875Z,4.93
2023-02-27T14:11:00.758Z,6.63
2023-02-27T14:25:00.941Z,7.28
2023-02-27T14:27:37.171Z,6.30
2023-02-27T14:30:09.524Z,7.28
2023-02-27T14:35:07.102Z,4.60
2023-02-27T14:37:36.836Z,5.15
2023-02-27T14:40:06.750Z,5.20
2023-02-27T14:45:39.243Z,6.05
2023-02-27T14:48:10.200Z,5.90
2023-02-27T14:50:40.875Z,7.55
2023-02-27T14:53:23.209Z,5.05
2023-02-27T14:55:59.561Z,6.68
2023-02-27T14:58:28.452Z,5.32
2023-02-27T15:03:53.411Z,6.80
2023-02-27T15:06:24.835Z,7.72
2023-02-27T15:08:54.152Z,6.93
2023-02-27T15:11:23.403Z,6.53
2023-02-27T15:13:58.401Z,5.43
2023-02-27T15:21:44.276Z,4.88
2023-02-27T15:24:24.172Z,4.93
2023-02-27T15:26:56.178Z,6.28
2023-02-27T15:29:27.035Z,6.45
2023-02-27T15:31:54.639Z,6.88
2023-02-27T15:34:22.291Z,6.85
2023-02-27T15:36:53.037Z,5.72
2023-02-27T15:39:23.950Z,7.80
2023-02-27T15:41:53.990Z,6.05
2023-02-27T15:44:27.845Z,4.80
2023-02-27T15:46:56.001Z,6.28
2023-02-27T15:49:24.894Z,6.22
2023-02-27T15:52:01.214Z,7.40
2023-02-27T15:54:34.588Z,6.13
2023-02-27T15:57:04.032Z,9.00
2023-02-27T15:59:36.161Z,7.15
2023-02-27T16:02:05.624Z,7.28
2023-02-27T16:04:35.047Z,7.50
2023-02-27T16:07:17.824Z,7.43
2023-02-27T16:09:49.693Z,6.10
2023-02-27T16:15:31.794Z,6.82
2023-02-27T16:20:39.795Z,10.32
2023-02-27T16:25:59.452Z,5.47
2023-02-27T16:31:31.361Z,11.20
2023-02-27T16:34:02.329Z,7.80
2023-02-27T16:36:31.768Z,9.20
2023-02-27T16:38:59.469Z,7.38
2023-02-27T16:41:28.240Z,9.95
2023-02-27T16:43:56.081Z,9.20
2023-02-27T16:46:23.951Z,10.45
2023-02-27T16:48:54.552Z,9.38
2023-02-27T16:51:25.215Z,9.40
2023-02-27T16:53:54.485Z,10.45
2023-02-27T16:56:35.825Z,8.82
2023-02-27T16:59:04.910Z,9.30
2023-02-27T17:01:34.219Z,11.55
2023-02-27T17:04:03.127Z,8.85
2023-02-27T17:06:31.544Z,10.27
2023-02-27T17:08:59.764Z,9.50
2023-02-27T17:11:27.325Z,11.57
2023-02-27T17:13:55.317Z,8.73
2023-02-27T17:16:22.854Z,10.35
2023-02-27T17:18:50.362Z,12.75
2023-02-27T17:21:18.068Z,10.35
2023-02-27T17:23:45.604Z,11.63
2023-02-27T17:26:13.918Z,13.27
2023-02-27T17:28:41.273Z,10.32
2023-02-27T17:31:11.866Z,12.80
2023-02-27T17:33:39.330Z,11.30
2023-02-27T17:36:09.384Z,10.48
2023-02-27T17:38:37.833Z,11.57
2023-02-27T17:41:07.481Z,13.13
2023-02-27T17:43:35.262Z,12.63
2023-02-27T17:46:07.514Z,11.40
2023-02-27T17:48:35.849Z,11.07
2023-02-27T17:51:06.719Z,10.75
2023-02-27T17:53:35.568Z,9.52
2023-02-27T17:56:03.161Z,12.98
2023-02-27T17:58:31.002Z,10.40
2023-02-27T18:03:44.592Z,12.70
2023-02-27T18:06:12.078Z,10.98
2023-02-27T18:08:39.747Z,10.77
2023-02-27T18:11:18.608Z,12.23
2023-02-27T18:13:47.137Z,12.23
2023-02-27T18:16:15.325Z,10.07
2023-02-27T18:18:43.594Z,11.60
2023-02-27T18:21:17.325Z,10.88
2023-02-27T18:23:45.437Z,10.35
2023-02-27T18:26:32.656Z,8.40
2023-02-27T18:29:02.919Z,9.68
2023-02-27T18:31:33.388Z,10.10
2023-02-27T18:34:01.608Z,9.65
2023-02-27T18:36:29.993Z,12.88
2023-02-27T18:38:58.107Z,9.52
2023-02-27T18:41:25.747Z,9.63
2023-02-27T18:43:53.483Z,9.98
2023-02-27T18:46:22.270Z,10.13
2023-02-27T18:48:50.028Z,12.10
2023-02-27T18:51:18.242Z,8.02
2023-02-27T18:53:48.451Z,12.15
2023-02-27T18:56:17.386Z,9.93
2023-02-27T18:58:45.581Z,10.43
2023-02-27T19:01:21.703Z,11.68
2023-02-27T19:03:50.301Z,8.27
2023-02-27T19:06:18.391Z,12.57
2023-02-27T19:08:46.525Z,9.48
2023-02-27T19:11:35.868Z,9.85
2023-02-27T19:14:06.170Z,8.48
2023-02-27T19:16:34.863Z,10.02
2023-02-27T19:19:03.739Z,7.15
2023-02-27T19:21:31.966Z,8.77
2023-02-27T19:23:59.430Z,11.05
2023-02-27T19:26:27.174Z,9.15
2023-02-27T19:28:55.614Z,9.88
2023-02-27T19:31:24.920Z,8.68
2023-02-27T19:33:53.159Z,7.57
2023-02-27T19:36:22.940Z,9.07
2023-02-27T19:38:50.911Z,7.82
2023-02-27T19:41:19.384Z,8.02
2023-02-27T19:43:47.882Z,10.70
2023-02-27T19:46:18.285Z,10.40
2023-02-27T19:48:46.235Z,10.15
2023-02-27T19:51:15.520Z,9.73
2023-02-27T19:53:45.705Z,8.23
2023-02-27T19:56:16.115Z,8.90
2023-02-27T19:58:44.238Z,7.13
2023-02-27T20:01:12.649Z,6.60
2023-02-27T20:03:43.859Z,8.88
2023-02-27T20:06:21.408Z,5.93
2023-02-27T20:08:49.152Z,6.43
2023-02-27T20:11:17.785Z,8.27
2023-02-27T20:13:45.443Z,5.72
2023-02-27T20:16:16.371Z,5.45
2023-02-27T20:18:44.247Z,6.25
2023-02-27T20:21:16.191Z,7.03
2023-02-27T20:23:45.278Z,4.40
2023-02-27T20:26:34.658Z,7.97
2023-02-27T20:29:08.553Z,6.75
2023-02-27T20:31:37.653Z,7.93
2023-02-27T20:34:06.866Z,5.28
2023-02-27T20:36:35.348Z,5.88
2023-02-27T20:39:03.705Z,7.00
2023-02-27T20:41:31.871Z,7.70
2023-02-27T20:43:59.852Z,6.00
2023-02-27T20:46:29.344Z,6.22
2023-02-27T20:48:59.634Z,8.07
2023-02-27T20:51:30.032Z,5.88
2023-02-27T20:54:00.224Z,8.90
2023-02-27T20:56:32.314Z,6.00
2023-02-27T20:59:02.470Z,5.93
2023-02-27T21:01:31.030Z,8.32
2023-02-27T21:03:59.252Z,5.18
2023-02-27T21:06:27.357Z,8.55
2023-02-27T21:08:57.533Z,7.00
2023-02-27T21:11:28.593Z,9.23
2023-02-27T21:13:57.608Z,9.35
2023-02-27T21:16:25.996Z,7.05
2023-02-27T21:18:56.704Z,8.30
2023-02-27T21:21:28.634Z,9.23
2023-02-27T21:23:56.548Z,7.13
2023-02-27T21:26:31.277Z,8.52
2023-02-27T21:29:03.764Z,6.68
2023-02-27T21:31:33.174Z,6.40
2023-02-27T21:34:02.564Z,7.15
2023-02-27T21:36:33.593Z,8.65
2023-02-27T21:39:03.209Z,8.13
2023-02-27T21:41:31.231Z,10.45
2023-02-27T21:44:01.373Z,6.63
2023-02-27T21:46:29.381Z,5.97
2023-02-27T21:48:57.628Z,6.43
2023-02-27T21:51:38.831Z,8.93
2023-02-27T21:54:10.129Z,7.50
2023-02-27T21:56:38.324Z,7.38
2023-02-27T21:59:05.779Z,7.50
2023-02-27T22:18:01.645Z,6.72
2023-02-27T22:20:29.455Z,8.02
2023-02-27T22:22:57.878Z,6.25
2023-02-27T22:25:25.950Z,5.38
2023-02-27T22:27:53.642Z,7.22
2023-02-27T22:30:21.678Z,5.32
2023-02-27T22:32:49.461Z,8.25
2023-02-27T22:35:17.161Z,7.38
2023-02-27T22:37:45.221Z,5.45
2023-02-27T22:40:13.522Z,9.23
2023-02-27T22:42:41.551Z,6.75
2023-02-27T22:45:09.324Z,6.20
2023-02-27T22:47:37.147Z,4.28
2023-02-27T22:50:05.533Z,6.38
2023-02-27T22:52:36.393Z,6.10
2023-02-27T22:55:04.386Z,6.35
2023-02-27T22:57:32.424Z,8.07
2023-02-27T23:00:00.237Z,4.95
2023-02-27T23:02:34.024Z,7.63
2023-02-27T23:05:01.803Z,4.22
2023-02-27T23:07:30.864Z,6.55
2023-02-27T23:09:58.629Z,6.05
2023-02-27T23:12:27.520Z,6.93
2023-02-27T23:14:55.459Z,6.65
2023-02-27T23:17:23.210Z,6.00
2023-02-27T23:19:51.407Z,5.63
2023-02-27T23:22:19.166Z,6.80
2023-02-27T23:24:46.976Z,7.70
2023-02-27T23:27:25.869Z,5.90
2023-02-27T23:29:54.120Z,8.45
2023-02-27T23:32:22.375Z,7.63
2023-02-27T23:34:50.100Z,6.45
2023-02-27T23:37:18.231Z,7.22
2023-02-27T23:39:46.382Z,6.15
2023-02-27T23:42:16.324Z,5.05
2023-02-27T23:44:44.459Z,6.28
2023-02-27T23:47:32.332Z,7.28
2023-02-27T23:50:00.053Z,6.68
2023-02-27T23:52:27.971Z,7.22
2023-02-27T23:54:55.720Z,7.57
2023-02-27T23:57:24.187Z,5.97
2023-02-27T23:59:51.949Z,4.53
